createdAt,value
2019-05-05T00:01:46.479Z,8.60
2019-05-05T00:04:19.661Z,8.60
2019-05-05T00:06:48.804Z,8.60
2019-05-05T00:09:17.739Z,8.60
2019-05-05T00:11:51.140Z,8.60
2019-05-05T00:14:21.670Z,8.60
2019-05-05T00:16:55.386Z,8.50
2019-05-05T00:19:32.644Z,8.60
2019-05-05T00:21:55.181Z,8.60
2019-05-05T00:24:24.521Z,8.40
2019-05-05T00:26:55.310Z,8.30
2019-05-05T00:29:25.352Z,8.20
2019-05-05T00:31:54.769Z,8.10
2019-05-05T00:34:24.448Z,8.20
2019-05-05T00:36:55.204Z,8.20
2019-05-05T00:39:25.468Z,8.20
2019-05-05T00:41:55.527Z,8.20
2019-05-05T00:44:24.793Z,8.30
2019-05-05T00:46:55.565Z,8.40
2019-05-05T00:49:25.046Z,8.40
2019-05-05T00:51:54.795Z,8.20
2019-05-05T00:54:24.390Z,8.20
2019-05-05T00:56:54.484Z,8.20
2019-05-05T00:59:27.805Z,8.30
2019-05-05T01:02:15.077Z,8.30
2019-05-05T01:04:45.863Z,8.20
2019-05-05T01:07:14.336Z,8.20
2019-05-05T01:09:45.144Z,8.30
2019-05-05T01:12:15.055Z,8.30
2019-05-05T01:14:44.775Z,8.30
2019-05-05T01:17:14.745Z,8.20
2019-05-05T01:19:46.736Z,8.20
2019-05-05T01:22:14.584Z,8.30
2019-05-05T01:24:45.750Z,8.30
2019-05-05T01:27:14.714Z,8.30
2019-05-05T01:29:45.212Z,8.20
2019-05-05T01:32:15.921Z,8.30
2019-05-05T01:34:47.802Z,8.30
2019-05-05T01:37:34.855Z,8.30
2019-05-05T01:40:07.333Z,8.00
2019-05-05T01:42:36.384Z,7.70
2019-05-05T01:45:05.467Z,7.70
2019-05-05T01:47:34.772Z,7.70
2019-05-05T01:50:17.654Z,7.60
2019-05-05T01:52:35.927Z,7.70
2019-05-05T01:55:05.996Z,7.70
2019-05-05T01:57:35.147Z,7.60
2019-05-05T02:00:08.219Z,7.70
2019-05-05T02:02:37.169Z,7.70
2019-05-05T02:05:06.828Z,7.70
2019-05-05T02:07:35.768Z,7.70
2019-05-05T02:10:06.336Z,7.80
2019-05-05T02:12:35.378Z,7.70
2019-05-05T02:15:06.539Z,7.70
2019-05-05T02:17:35.668Z,7.80
2019-05-05T02:20:05.462Z,7.70
2019-05-05T02:22:35.633Z,7.70
2019-05-05T02:25:06.667Z,7.70
2019-05-05T02:27:34.975Z,7.70
2019-05-05T02:30:06.600Z,7.60
2019-05-05T02:32:40.282Z,7.60
2019-05-05T02:35:16.213Z,7.30
2019-05-05T02:37:45.640Z,7.30
2019-05-05T02:40:15.953Z,7.10
2019-05-05T02:42:45.786Z,7.10
2019-05-05T02:45:25.341Z,7.10
2019-05-05T02:48:05.493Z,7.00
2019-05-05T02:50:51.030Z,7.10
2019-05-05T02:53:04.883Z,7.00
2019-05-05T02:55:34.792Z,7.10
2019-05-05T02:58:03.913Z,7.00
2019-05-05T03:00:37.309Z,7.00
2019-05-05T03:03:07.888Z,7.00
2019-05-05T03:05:36.845Z,6.90
2019-05-05T03:08:05.737Z,6.90
2019-05-05T03:10:34.779Z,6.70
2019-05-05T03:13:04.891Z,6.80
2019-05-05T03:15:56.634Z,6.80
2019-05-05T03:18:25.587Z,6.90
2019-05-05T03:21:02.320Z,6.80
2019-05-05T03:23:25.243Z,6.80
2019-05-05T03:25:54.649Z,6.70
2019-05-05T03:28:25.543Z,6.70
2019-05-05T03:30:55.768Z,6.70
2019-05-05T03:33:25.171Z,6.60
2019-05-05T03:35:54.566Z,6.60
2019-05-05T03:38:24.771Z,6.60
2019-05-05T03:40:55.712Z,6.60
2019-05-05T03:43:27.953Z,6.50
2019-05-05T03:45:58.497Z,6.50
2019-05-05T03:48:27.285Z,6.60
2019-05-05T03:50:56.267Z,6.60
2019-05-05T03:53:25.087Z,6.70
2019-05-05T03:55:54.660Z,6.70
2019-05-05T03:58:24.125Z,6.40
2019-05-05T04:01:05.362Z,6.40
2019-05-05T04:03:34.322Z,6.30
2019-05-05T04:06:04.966Z,6.30
2019-05-05T04:08:33.918Z,6.10
2019-05-05T04:11:03.921Z,6.10
2019-05-05T04:13:34.459Z,6.10
2019-05-05T04:16:14.997Z,6.10
2019-05-05T04:18:48.417Z,6.00
2019-05-05T04:21:30.276Z,6.00
2019-05-05T04:23:47.352Z,6.10
2019-05-05T04:26:16.581Z,5.90
2019-05-05T04:28:45.653Z,5.90
2019-05-05T04:31:14.797Z,6.00
2019-05-05T04:33:44.458Z,6.00
2019-05-05T04:36:14.451Z,6.00
2019-05-05T04:38:44.799Z,5.90
2019-05-05T04:41:14.156Z,5.90
2019-05-05T04:43:44.164Z,5.70
2019-05-05T04:46:14.097Z,5.50
2019-05-05T04:48:50.892Z,5.50
2019-05-05T04:51:24.487Z,5.70
2019-05-05T04:54:10.400Z,5.60
2019-05-05T04:56:39.429Z,5.70
2019-05-05T04:59:08.319Z,5.60
2019-05-05T05:01:37.470Z,5.60
2019-05-05T05:04:10.894Z,5.60
2019-05-05T05:06:54.237Z,5.70
2019-05-05T05:09:23.720Z,5.70
2019-05-05T05:11:54.578Z,5.50
2019-05-05T05:14:24.731Z,5.50
2019-05-05T05:16:54.722Z,5.40
2019-05-05T05:19:24.199Z,5.40
2019-05-05T05:22:01.279Z,5.40
2019-05-05T05:24:23.759Z,5.50
2019-05-05T05:26:53.042Z,5.50
2019-05-05T05:29:23.810Z,5.50
2019-05-05T05:31:53.519Z,5.50
2019-05-05T05:34:23.877Z,5.60
2019-05-05T05:36:53.642Z,5.50
2019-05-05T05:39:30.439Z,5.60
2019-05-05T05:41:59.247Z,5.60
2019-05-05T05:44:33.830Z,5.60
2019-05-05T05:47:21.075Z,5.60
2019-05-05T05:50:04.105Z,5.60
2019-05-05T05:52:43.727Z,5.60
2019-05-05T05:55:14.579Z,5.60
2019-05-05T05:57:43.921Z,5.70
2019-05-05T06:00:14.522Z,5.60
2019-05-05T06:02:43.954Z,5.60
2019-05-05T06:05:14.691Z,5.50
2019-05-05T06:07:44.898Z,5.50
2019-05-05T06:10:22.302Z,5.50
2019-05-05T06:12:45.015Z,5.60
2019-05-05T06:15:15.844Z,5.50
2019-05-05T06:17:44.616Z,5.60
2019-05-05T06:20:15.058Z,5.70
2019-05-05T06:22:44.688Z,5.60
2019-05-05T06:25:21.203Z,5.50
2019-05-05T06:27:54.182Z,5.50
2019-05-05T06:30:24.347Z,5.60
2019-05-05T06:32:54.387Z,5.70
2019-05-05T06:35:24.467Z,5.80
2019-05-05T06:37:54.945Z,5.90
2019-05-05T06:40:46.899Z,5.50
2019-05-05T06:46:11.437Z,5.50
2019-05-05T06:48:40.196Z,5.60
2019-05-05T06:51:09.006Z,5.70
2019-05-05T06:53:38.130Z,5.40
2019-05-05T06:56:06.977Z,5.30
2019-05-05T06:58:35.685Z,5.30
2019-05-05T07:01:04.561Z,5.40
2019-05-05T07:03:33.792Z,5.60
2019-05-05T07:06:04.240Z,5.70
2019-05-05T07:08:35.040Z,5.80
2019-05-05T07:11:04.099Z,5.70
2019-05-05T07:13:33.887Z,5.60
2019-05-05T07:16:05.212Z,5.60
2019-05-05T07:18:34.259Z,5.80
2019-05-05T07:21:05.205Z,5.80
2019-05-05T07:23:34.305Z,5.80
2019-05-05T07:26:04.125Z,5.90
2019-05-05T07:28:34.223Z,5.80
2019-05-05T07:31:04.428Z,5.80
2019-05-05T07:33:34.554Z,6.00
2019-05-05T07:36:06.117Z,6.00
2019-05-05T07:38:35.305Z,6.00
2019-05-05T07:41:04.082Z,6.10
2019-05-05T07:43:34.495Z,6.20
2019-05-05T07:46:04.470Z,6.10
2019-05-05T07:48:33.651Z,6.10
2019-05-05T07:51:05.258Z,6.20
2019-05-05T07:53:33.594Z,6.20
2019-05-05T07:56:03.922Z,6.00
2019-05-05T07:58:34.387Z,5.80
2019-05-05T08:01:04.605Z,5.90
2019-05-05T08:03:33.944Z,5.90
2019-05-05T08:06:03.985Z,5.90
2019-05-05T08:08:33.559Z,6.00
2019-05-05T08:11:04.655Z,6.10
2019-05-05T08:13:33.612Z,6.10
2019-05-05T08:16:04.355Z,6.20
2019-05-05T08:18:51.033Z,6.20
2019-05-05T08:21:20.035Z,6.20
2019-05-05T08:23:54.034Z,6.00
2019-05-05T08:26:28.863Z,5.90
2019-05-05T08:28:59.387Z,6.00
2019-05-05T08:31:29.828Z,6.00
2019-05-05T08:33:58.707Z,5.80
2019-05-05T08:36:27.614Z,5.90
2019-05-05T08:38:56.456Z,6.00
2019-05-05T08:41:25.281Z,6.00
2019-05-05T08:43:54.343Z,6.20
2019-05-05T08:46:24.769Z,6.20
2019-05-05T08:48:53.852Z,6.20
2019-05-05T08:51:24.664Z,6.20
2019-05-05T08:53:54.588Z,6.30
2019-05-05T08:56:24.441Z,6.40
2019-05-05T08:58:54.509Z,6.40
2019-05-05T09:01:23.821Z,6.50
2019-05-05T09:03:53.535Z,6.50
2019-05-05T09:06:24.140Z,6.60
2019-05-05T09:08:54.725Z,6.60
2019-05-05T09:11:24.052Z,6.60
2019-05-05T09:13:53.538Z,6.60
2019-05-05T09:16:24.197Z,6.70
2019-05-05T09:19:08.021Z,6.70
2019-05-05T09:21:37.011Z,6.80
2019-05-05T09:24:24.961Z,6.70
2019-05-05T09:27:03.501Z,6.70
2019-05-05T09:29:36.639Z,6.70
2019-05-05T09:32:05.755Z,6.70
2019-05-05T09:34:34.637Z,6.80
2019-05-05T09:37:04.256Z,6.80
2019-05-05T09:39:34.541Z,6.80
2019-05-05T09:42:04.096Z,6.90
2019-05-05T09:44:34.644Z,7.00
2019-05-05T09:47:04.725Z,7.10
2019-05-05T09:49:33.935Z,7.10
2019-05-05T09:52:04.920Z,7.10
2019-05-05T09:54:34.540Z,7.30
2019-05-05T09:57:04.476Z,7.00
2019-05-05T09:59:34.702Z,6.80
2019-05-05T10:02:05.610Z,6.90
2019-05-05T10:04:34.605Z,7.00
2019-05-05T10:07:05.282Z,7.10
2019-05-05T10:09:34.608Z,7.10
2019-05-05T10:12:04.716Z,6.90
2019-05-05T10:14:34.308Z,7.00
2019-05-05T10:17:04.939Z,7.10
2019-05-05T10:19:34.730Z,7.20
2019-05-05T10:22:04.055Z,7.30
2019-05-05T10:24:36.186Z,7.20
2019-05-05T10:27:05.064Z,7.00
2019-05-05T10:29:34.194Z,6.90
2019-05-05T10:32:04.545Z,6.80
2019-05-05T10:34:33.596Z,6.90
2019-05-05T10:37:04.164Z,6.70
2019-05-05T10:39:36.797Z,6.80
2019-05-05T10:42:05.794Z,6.80
2019-05-05T10:44:34.698Z,6.80
2019-05-05T10:47:04.543Z,6.90
2019-05-05T10:49:33.770Z,6.90
2019-05-05T10:52:04.106Z,7.00
2019-05-05T10:54:43.820Z,7.10
2019-05-05T10:57:04.006Z,7.10
2019-05-05T10:59:34.430Z,7.10
2019-05-05T11:02:04.974Z,6.90
2019-05-05T11:04:34.233Z,6.90
2019-05-05T11:07:04.202Z,7.00
2019-05-05T11:09:35.214Z,6.90
2019-05-05T11:12:04.146Z,6.90
2019-05-05T11:14:33.701Z,6.80
2019-05-05T11:17:04.163Z,6.90
2019-05-05T11:19:33.714Z,6.90
2019-05-05T11:22:02.879Z,6.90
2019-05-05T11:24:31.967Z,6.80
2019-05-05T11:27:00.774Z,6.80
2019-05-05T11:29:29.657Z,6.80
2019-05-05T11:32:00.179Z,6.80
2019-05-05T11:34:29.689Z,6.80
2019-05-05T11:37:00.097Z,6.80
2019-05-05T11:39:29.121Z,6.70
2019-05-05T11:41:58.098Z,6.70
2019-05-05T11:44:28.639Z,6.70
2019-05-05T11:46:57.605Z,6.70
2019-05-05T11:49:26.538Z,6.50
2019-05-05T11:51:55.602Z,6.50
2019-05-05T11:54:24.741Z,6.60
2019-05-05T11:56:55.258Z,6.60
2019-05-05T11:59:24.264Z,6.60
2019-05-05T12:01:54.957Z,6.60
2019-05-05T12:04:24.066Z,6.50
2019-05-05T12:06:53.004Z,6.50
2019-05-05T12:09:24.768Z,6.50
2019-05-05T12:11:54.496Z,6.60
2019-05-05T12:14:27.249Z,6.50
2019-05-05T12:16:55.760Z,6.60
2019-05-05T12:19:24.685Z,6.70
2019-05-05T12:21:54.803Z,6.80
2019-05-05T12:24:25.647Z,6.70
2019-05-05T12:27:05.249Z,6.60
2019-05-05T12:29:35.559Z,6.40
2019-05-05T12:32:04.481Z,6.60
2019-05-05T12:34:34.071Z,6.70
2019-05-05T12:37:05.312Z,6.80
2019-05-05T12:39:34.390Z,6.80
2019-05-05T12:42:04.839Z,6.70
2019-05-05T12:44:36.068Z,6.80
2019-05-05T12:47:15.414Z,6.70
2019-05-05T12:49:44.606Z,6.80
2019-05-05T12:52:13.978Z,6.90
2019-05-05T12:54:44.095Z,7.00
2019-05-05T12:57:13.763Z,7.10
2019-05-05T12:59:44.381Z,6.90
2019-05-05T13:02:14.296Z,6.90
2019-05-05T13:04:45.003Z,6.90
2019-05-05T13:07:14.829Z,7.00
2019-05-05T13:09:44.172Z,7.00
2019-05-05T13:12:14.856Z,7.00
2019-05-05T13:14:43.978Z,7.00
2019-05-05T13:17:14.184Z,7.00
2019-05-05T13:19:44.916Z,7.00
2019-05-05T13:22:35.100Z,6.90
2019-05-05T13:25:17.916Z,7.00
2019-05-05T13:27:47.043Z,6.80
2019-05-05T13:30:16.105Z,6.80
2019-05-05T13:32:48.472Z,6.90
2019-05-05T13:35:21.008Z,6.90
2019-05-05T13:37:51.884Z,6.70
2019-05-05T13:40:20.162Z,6.70
2019-05-05T13:42:49.097Z,6.70
2019-05-05T13:45:38.289Z,6.70
2019-05-05T13:48:07.937Z,6.70
2019-05-05T13:50:38.235Z,6.70
2019-05-05T13:53:11.197Z,6.70
2019-05-05T13:55:41.769Z,6.80
2019-05-05T13:58:16.706Z,6.90
2019-05-05T14:00:46.996Z,6.80
2019-05-05T14:03:16.423Z,6.80
2019-05-05T14:05:45.443Z,7.00
2019-05-05T14:08:14.675Z,6.80
2019-05-05T14:10:45.788Z,6.80
2019-05-05T14:13:19.679Z,6.90
2019-05-05T14:15:54.370Z,6.90
2019-05-05T14:18:23.746Z,6.90
2019-05-05T14:20:52.746Z,7.00
2019-05-05T14:23:23.912Z,7.10
2019-05-05T14:25:54.421Z,7.10
2019-05-05T14:28:23.506Z,7.10
2019-05-05T14:30:56.369Z,7.10
2019-05-05T14:33:30.241Z,7.10
2019-05-05T14:36:21.850Z,7.10
2019-05-05T14:38:53.916Z,7.00
2019-05-05T14:41:23.997Z,7.00
2019-05-05T14:43:56.646Z,7.00
2019-05-05T14:46:25.570Z,6.90
2019-05-05T14:48:56.257Z,7.00
2019-05-05T14:51:26.874Z,7.10
2019-05-05T14:53:55.872Z,7.10
2019-05-05T14:56:36.146Z,7.10
2019-05-05T14:58:56.831Z,7.20
2019-05-05T15:01:25.682Z,7.20
2019-05-05T15:03:54.751Z,7.20
2019-05-05T15:06:30.335Z,7.10
2019-05-05T15:09:07.886Z,7.10
2019-05-05T15:11:46.618Z,7.10
2019-05-05T15:14:18.811Z,7.20
2019-05-05T15:16:47.725Z,7.20
2019-05-05T15:19:20.503Z,7.20
2019-05-05T15:22:00.597Z,7.20
2019-05-05T15:24:31.071Z,7.20
2019-05-05T15:27:01.796Z,7.10
2019-05-05T15:29:30.142Z,7.10
2019-05-05T15:31:59.312Z,7.00
2019-05-05T15:34:35.913Z,6.90
2019-05-05T15:37:11.771Z,7.00
2019-05-05T15:39:57.117Z,6.90
2019-05-05T15:42:29.688Z,6.80
2019-05-05T15:44:58.910Z,6.80
2019-05-05T15:47:28.175Z,6.80
2019-05-05T15:49:57.158Z,6.70
2019-05-05T15:52:26.683Z,6.70
2019-05-05T15:54:55.962Z,6.70
2019-05-05T15:57:24.999Z,6.60
2019-05-05T15:59:54.380Z,6.70
2019-05-05T16:02:24.006Z,6.70
2019-05-05T16:04:54.148Z,6.70
2019-05-05T16:07:24.263Z,6.60
2019-05-05T16:09:53.700Z,6.50
2019-05-05T16:12:31.988Z,6.60
2019-05-05T16:15:01.718Z,6.60
2019-05-05T16:17:34.222Z,6.50
2019-05-05T16:20:05.100Z,6.50
2019-05-05T16:22:35.713Z,6.40
2019-05-05T16:25:10.270Z,6.30
2019-05-05T16:27:40.078Z,6.20
2019-05-05T16:30:10.787Z,6.30
2019-05-05T16:32:41.922Z,6.20
2019-05-05T16:35:11.298Z,6.30
2019-05-05T16:37:40.749Z,6.20
2019-05-05T16:40:10.253Z,6.20
2019-05-05T16:42:39.286Z,6.20
2019-05-05T16:45:10.006Z,6.20
2019-05-05T16:47:39.090Z,6.20
2019-05-05T16:50:08.188Z,6.20
2019-05-05T16:52:38.828Z,6.20
2019-05-05T16:55:13.382Z,6.20
2019-05-05T16:57:43.724Z,6.20
2019-05-05T17:00:12.880Z,6.10
2019-05-05T17:02:44.871Z,6.20
2019-05-05T17:05:14.073Z,6.20
2019-05-05T17:07:43.195Z,6.10
2019-05-05T17:10:13.822Z,6.10
2019-05-05T17:12:44.317Z,6.10
2019-05-05T17:15:35.196Z,6.10
2019-05-05T17:18:32.506Z,6.10
2019-05-05T17:21:09.928Z,6.10
2019-05-05T17:23:39.261Z,6.00
2019-05-05T17:26:08.091Z,5.80
2019-05-05T17:28:37.368Z,5.70
2019-05-05T17:31:08.058Z,5.70
2019-05-05T17:33:38.538Z,5.80
2019-05-05T17:36:07.597Z,5.80
2019-05-05T17:38:37.049Z,5.80
2019-05-05T17:41:07.800Z,5.80
2019-05-05T17:43:41.612Z,5.80
2019-05-05T17:46:21.772Z,5.80
2019-05-05T17:49:01.610Z,5.90
2019-05-05T17:51:43.658Z,5.80
2019-05-05T17:54:33.910Z,5.90
2019-05-05T17:57:03.679Z,5.90
2019-05-05T17:59:33.757Z,5.90
2019-05-05T18:02:04.699Z,5.80
2019-05-05T18:04:34.359Z,5.70
2019-05-05T18:07:23.831Z,5.70
2019-05-05T18:10:04.183Z,5.80
2019-05-05T18:12:35.006Z,5.80
2019-05-05T18:15:07.349Z,5.70
2019-05-05T18:17:38.027Z,5.80
2019-05-05T18:20:06.337Z,5.80
2019-05-05T18:22:35.900Z,5.70
2019-05-05T18:25:06.346Z,5.70
2019-05-05T18:27:35.861Z,5.70
2019-05-05T18:30:06.149Z,5.60
2019-05-05T18:32:35.638Z,5.60
2019-05-05T18:35:06.767Z,5.60
2019-05-05T18:37:37.449Z,5.70
2019-05-05T18:40:07.508Z,5.60
2019-05-05T18:42:37.315Z,5.50
2019-05-05T18:45:09.052Z,5.50
2019-05-05T18:47:38.465Z,5.50
2019-05-05T18:50:09.147Z,5.50
2019-05-05T18:52:38.079Z,5.60
2019-05-05T18:55:08.148Z,5.60
2019-05-05T18:57:37.712Z,5.60
2019-05-05T19:00:09.070Z,5.60
2019-05-05T19:02:44.321Z,5.60
2019-05-05T19:05:23.555Z,5.60
2019-05-05T19:07:55.930Z,5.60
2019-05-05T19:10:24.975Z,5.60
2019-05-05T19:12:54.491Z,5.60
2019-05-05T19:15:25.203Z,5.50
2019-05-05T19:17:53.795Z,5.50
2019-05-05T19:20:27.580Z,5.60
2019-05-05T19:23:05.247Z,5.50
2019-05-05T19:25:35.831Z,5.50
2019-05-05T19:28:04.891Z,5.60
2019-05-05T19:30:36.142Z,5.50
2019-05-05T19:33:05.379Z,5.50
2019-05-05T19:35:44.126Z,5.60
2019-05-05T19:38:07.002Z,5.50
2019-05-05T19:40:36.417Z,5.50
2019-05-05T19:43:05.777Z,5.50
2019-05-05T19:45:34.792Z,5.40
2019-05-05T19:48:05.914Z,5.40
2019-05-05T19:50:35.178Z,5.40
2019-05-05T19:53:04.701Z,5.40
2019-05-05T19:55:36.291Z,5.40
2019-05-05T19:58:05.878Z,5.40
2019-05-05T20:00:38.440Z,5.30
2019-05-05T20:03:05.908Z,5.40
2019-05-05T20:05:35.287Z,5.40
2019-05-05T20:08:04.453Z,5.40
2019-05-05T20:10:33.672Z,5.30
2019-05-05T20:13:04.818Z,5.30
2019-05-05T20:15:34.965Z,5.30
2019-05-05T20:18:04.673Z,5.20
2019-05-05T20:20:33.942Z,5.20
2019-05-05T20:23:04.220Z,5.30
2019-05-05T20:25:34.028Z,5.40
2019-05-05T20:28:03.881Z,5.40
2019-05-05T20:30:34.220Z,5.30
2019-05-05T20:33:05.367Z,5.30
2019-05-05T20:35:36.526Z,5.40
2019-05-05T20:38:14.290Z,5.40
2019-05-05T20:41:01.288Z,5.20
2019-05-05T20:43:30.533Z,5.20
2019-05-05T20:45:59.571Z,5.20
2019-05-05T20:48:28.783Z,5.20
2019-05-05T20:50:57.982Z,5.20
2019-05-05T20:53:27.273Z,5.20
2019-05-05T20:55:56.078Z,5.30
2019-05-05T20:58:24.946Z,5.20
2019-05-05T21:00:54.913Z,5.20
2019-05-05T21:03:24.070Z,5.20
2019-05-05T21:05:53.851Z,5.20
2019-05-05T21:08:23.608Z,5.20
2019-05-05T21:10:53.661Z,5.20
2019-05-05T21:13:22.956Z,5.20
2019-05-05T21:15:53.771Z,5.20
2019-05-05T21:18:23.906Z,5.20
2019-05-05T21:20:54.660Z,5.20
2019-05-05T21:23:25.435Z,5.20
2019-05-05T21:25:58.619Z,5.20
2019-05-05T21:28:27.542Z,5.30
2019-05-05T21:30:56.655Z,5.30
2019-05-05T21:33:25.608Z,5.30
2019-05-05T21:35:55.067Z,5.40
2019-05-05T21:38:24.182Z,5.30
2019-05-05T21:40:53.184Z,5.20
2019-05-05T21:43:21.986Z,5.20
2019-05-05T21:45:50.934Z,5.20
2019-05-05T21:48:19.823Z,5.20
2019-05-05T21:50:50.491Z,5.20
2019-05-05T21:53:26.326Z,5.20
2019-05-05T21:56:13.888Z,5.20
2019-05-05T21:58:44.403Z,5.20
2019-05-05T22:01:15.077Z,5.10
2019-05-05T22:03:44.351Z,5.20
2019-05-05T22:06:14.624Z,5.20
2019-05-05T22:08:43.724Z,5.20
2019-05-05T22:11:14.688Z,5.20
2019-05-05T22:13:44.175Z,5.20
2019-05-05T22:16:13.635Z,5.10
2019-05-05T22:18:44.710Z,5.10
2019-05-05T22:21:15.352Z,5.20
2019-05-05T22:23:45.886Z,5.20
2019-05-05T22:26:15.186Z,5.20
2019-05-05T22:28:44.609Z,5.10
2019-05-05T22:31:14.169Z,5.10
2019-05-05T22:33:44.744Z,5.20
2019-05-05T22:36:14.145Z,5.10
2019-05-05T22:38:44.556Z,5.20
2019-05-05T22:41:15.853Z,5.20
2019-05-05T22:43:44.322Z,5.20
2019-05-05T22:46:14.167Z,5.30
2019-05-05T22:48:44.058Z,5.30
2019-05-05T22:51:14.423Z,5.30
2019-05-05T22:53:43.992Z,5.30
2019-05-05T22:56:14.780Z,5.20
2019-05-05T22:58:43.922Z,5.20
2019-05-05T23:01:13.647Z,5.10
2019-05-05T23:03:51.985Z,5.10
2019-05-05T23:06:31.420Z,5.10
2019-05-05T23:09:00.381Z,5.10
2019-05-05T23:11:29.242Z,5.10
2019-05-05T23:14:16.207Z,5.10
2019-05-05T23:16:46.550Z,5.10
2019-05-05T23:19:15.330Z,5.00
2019-05-05T23:21:45.779Z,5.00
2019-05-05T23:24:25.507Z,5.10
2019-05-05T23:26:55.566Z,5.10
2019-05-05T23:29:26.492Z,5.10
2019-05-05T23:31:54.418Z,5.10
2019-05-05T23:34:24.258Z,5.10
2019-05-05T23:36:54.961Z,5.10
2019-05-05T23:39:24.288Z,5.10
2019-05-05T23:41:54.700Z,5.10
2019-05-05T23:44:23.979Z,5.10
2019-05-05T23:46:53.714Z,5.00
2019-05-05T23:49:24.259Z,5.10
2019-05-05T23:51:54.035Z,5.10
2019-05-05T23:54:24.688Z,5.10
2019-05-05T23:56:54.388Z,5.00
2019-05-05T23:59:24.131Z,4.90
